createdAt,value
2023-01-31T00:01:44.197Z,98490.56
2023-01-31T00:04:12.668Z,98482.66
2023-01-31T00:06:42.994Z,98482.81
2023-01-31T00:09:12.307Z,98472.00
2023-01-31T00:11:40.165Z,98468.72
2023-01-31T00:14:10.542Z,98482.19
2023-01-31T00:16:38.564Z,98489.63
2023-01-31T00:19:06.931Z,98497.59
2023-01-31T00:21:34.890Z,98508.28
2023-01-31T00:24:02.455Z,98518.53
2023-01-31T00:26:32.632Z,98528.75
2023-01-31T00:29:02.894Z,98519.03
2023-01-31T00:31:33.388Z,98514.66
2023-01-31T00:34:01.315Z,98517.16
2023-01-31T00:36:34.834Z,98516.66
2023-01-31T00:39:04.858Z,98506.28
2023-01-31T00:41:33.686Z,98521.47
2023-01-31T00:44:01.506Z,98525.72
2023-01-31T00:46:31.075Z,98507.78
2023-01-31T00:48:59.526Z,98517.56
2023-01-31T00:51:27.105Z,98525.75
2023-01-31T00:53:55.439Z,98521.75
2023-01-31T00:56:24.630Z,98534.50
2023-01-31T00:58:53.075Z,98525.00
2023-01-31T01:01:26.598Z,98512.84
2023-01-31T01:03:56.129Z,98517.22
2023-01-31T01:06:24.111Z,98534.72
2023-01-31T01:08:52.527Z,98523.47
2023-01-31T01:11:22.961Z,98519.25
2023-01-31T01:13:50.932Z,98516.59
2023-01-31T01:16:22.104Z,98514.16
2023-01-31T01:18:50.388Z,98526.38
2023-01-31T01:21:21.325Z,98528.53
2023-01-31T01:23:50.587Z,98533.22
2023-01-31T01:26:20.887Z,98532.56
2023-01-31T01:28:50.116Z,98534.06
2023-01-31T01:31:18.997Z,98536.47
2023-01-31T01:33:48.704Z,98541.44
2023-01-31T01:36:22.009Z,98525.34
2023-01-31T01:38:50.013Z,98536.19
2023-01-31T01:41:18.803Z,98547.50
2023-01-31T01:43:48.265Z,98544.69
2023-01-31T01:46:31.751Z,98548.19
2023-01-31T01:49:14.569Z,98551.25
2023-01-31T01:51:45.049Z,98550.13
2023-01-31T01:54:20.991Z,98536.88
2023-01-31T01:56:55.349Z,98542.97
2023-01-31T01:59:31.415Z,98545.97
2023-01-31T02:01:59.025Z,98533.38
2023-01-31T02:04:36.115Z,98552.09
2023-01-31T02:07:04.127Z,98550.47
2023-01-31T02:09:56.147Z,98543.53
2023-01-31T02:12:25.073Z,98555.31
2023-01-31T02:14:53.176Z,98560.75
2023-01-31T02:17:21.011Z,98576.13
2023-01-31T02:20:16.652Z,98578.97
2023-01-31T02:22:44.186Z,98586.34
2023-01-31T02:25:14.824Z,98589.00
2023-01-31T02:28:20.087Z,98590.59
2023-01-31T02:31:03.906Z,98592.91
2023-01-31T02:34:03.674Z,98588.88
2023-01-31T02:36:39.871Z,98588.97
2023-01-31T02:39:31.247Z,98591.88
2023-01-31T02:42:46.519Z,98596.19
2023-01-31T02:45:32.791Z,98599.28
2023-01-31T02:48:11.456Z,98598.91
2023-01-31T02:50:53.718Z,98606.69
2023-01-31T02:53:28.426Z,98616.81
2023-01-31T02:56:14.825Z,98613.91
2023-01-31T02:58:48.393Z,98616.78
2023-01-31T03:01:23.249Z,98619.50
2023-01-31T03:03:53.157Z,98617.63
2023-01-31T03:06:23.447Z,98630.84
2023-01-31T03:09:28.385Z,98630.84
2023-01-31T03:12:20.520Z,98629.66
2023-01-31T03:15:10.573Z,98636.31
2023-01-31T03:17:59.357Z,98638.66
2023-01-31T03:20:36.464Z,98642.44
2023-01-31T03:23:11.284Z,98647.91
2023-01-31T03:25:39.440Z,98646.41
2023-01-31T03:28:15.301Z,98651.50
2023-01-31T03:30:54.116Z,98645.63
2023-01-31T03:33:29.998Z,98644.50
2023-01-31T03:36:07.091Z,98656.03
2023-01-31T03:38:38.992Z,98650.47
2023-01-31T03:41:32.962Z,98651.84
2023-01-31T03:44:12.320Z,98659.25
2023-01-31T03:46:49.944Z,98655.03
2023-01-31T03:49:21.782Z,98659.63
2023-01-31T03:51:56.397Z,98663.38
2023-01-31T03:54:29.687Z,98665.41
2023-01-31T03:57:25.470Z,98665.06
2023-01-31T03:59:57.732Z,98684.63
2023-01-31T04:02:35.311Z,98680.00
2023-01-31T04:05:10.792Z,98680.69
2023-01-31T04:07:41.689Z,98683.25
2023-01-31T04:10:18.946Z,98679.88
2023-01-31T04:12:47.275Z,98693.38
2023-01-31T04:15:15.597Z,98692.69
2023-01-31T04:17:44.012Z,98698.59
2023-01-31T04:20:13.166Z,98702.22
2023-01-31T04:22:40.682Z,98708.28
2023-01-31T04:25:08.795Z,98710.06
2023-01-31T04:27:37.035Z,98706.69
2023-01-31T04:30:06.173Z,98699.19
2023-01-31T04:32:33.759Z,98711.88
2023-01-31T04:35:02.745Z,98721.22
2023-01-31T04:37:30.299Z,98727.72
2023-01-31T04:39:57.855Z,98717.13
2023-01-31T04:42:25.505Z,98723.31
2023-01-31T04:44:53.120Z,98735.84
2023-01-31T04:47:20.612Z,98738.84
2023-01-31T04:49:48.155Z,98740.72
2023-01-31T04:52:15.660Z,98728.97
2023-01-31T04:54:43.162Z,98726.34
2023-01-31T04:57:10.620Z,98735.41
2023-01-31T04:59:38.563Z,98718.59
2023-01-31T05:02:06.289Z,98724.22
2023-01-31T05:04:34.009Z,98726.53
2023-01-31T05:07:01.497Z,98721.13
2023-01-31T05:09:28.993Z,98720.19
2023-01-31T05:11:56.803Z,98730.47
2023-01-31T05:14:24.314Z,98730.63
2023-01-31T05:16:51.841Z,98722.22
2023-01-31T05:19:19.436Z,98724.41
2023-01-31T05:21:55.705Z,98747.22
2023-01-31T05:24:24.132Z,98747.50
2023-01-31T05:26:53.951Z,98748.66
2023-01-31T05:29:21.591Z,98747.09
2023-01-31T05:31:57.524Z,98740.59
2023-01-31T05:34:26.566Z,98742.91
2023-01-31T05:36:54.619Z,98750.59
2023-01-31T05:39:22.760Z,98743.78
2023-01-31T05:41:50.403Z,98757.91
2023-01-31T05:44:17.912Z,98739.63
2023-01-31T05:46:45.874Z,98733.72
2023-01-31T05:49:13.556Z,98740.16
2023-01-31T05:51:41.776Z,98738.13
2023-01-31T05:54:11.818Z,98747.03
2023-01-31T05:56:39.646Z,98733.00
2023-01-31T05:59:07.177Z,98731.88
2023-01-31T06:01:34.775Z,98732.00
2023-01-31T06:04:02.362Z,98727.97
2023-01-31T06:06:29.782Z,98724.25
2023-01-31T06:08:57.239Z,98725.72
2023-01-31T06:11:25.392Z,98739.03
2023-01-31T06:13:54.699Z,98732.84
2023-01-31T06:16:22.462Z,98735.44
2023-01-31T06:18:49.978Z,98742.69
2023-01-31T06:21:17.818Z,98742.13
2023-01-31T06:23:46.368Z,98746.28
2023-01-31T06:26:14.528Z,98753.59
2023-01-31T06:28:42.393Z,98749.63
2023-01-31T06:31:12.291Z,98764.38
2023-01-31T06:33:46.960Z,98770.78
2023-01-31T06:36:19.219Z,98760.88
2023-01-31T06:38:52.143Z,98762.09
2023-01-31T06:41:20.645Z,98776.44
2023-01-31T06:43:48.517Z,98774.00
2023-01-31T06:46:16.342Z,98774.56
2023-01-31T06:48:43.978Z,98787.25
2023-01-31T06:51:11.613Z,98783.34
2023-01-31T06:53:39.164Z,98786.56
2023-01-31T06:56:07.673Z,98798.41
2023-01-31T06:58:35.438Z,98803.19
2023-01-31T07:01:11.759Z,98791.72
2023-01-31T07:03:40.162Z,98800.44
2023-01-31T07:06:08.708Z,98813.72
2023-01-31T07:08:37.148Z,98816.63
2023-01-31T07:11:06.400Z,98807.50
2023-01-31T07:13:34.067Z,98823.72
2023-01-31T07:16:01.652Z,98820.94
2023-01-31T07:18:29.350Z,98829.63
2023-01-31T07:20:57.105Z,98836.28
2023-01-31T07:23:25.313Z,98834.16
2023-01-31T07:25:52.854Z,98839.16
2023-01-31T07:28:20.416Z,98850.94
2023-01-31T07:30:49.282Z,98843.72
2023-01-31T07:33:16.751Z,98840.19
2023-01-31T07:35:48.396Z,98849.28
2023-01-31T07:38:15.909Z,98845.72
2023-01-31T07:40:43.471Z,98851.00
2023-01-31T07:43:11.305Z,98853.91
2023-01-31T07:45:39.971Z,98866.16
2023-01-31T07:48:07.675Z,98857.88
2023-01-31T07:50:35.244Z,98853.56
2023-01-31T07:53:02.719Z,98859.84
2023-01-31T07:55:30.674Z,98858.28
2023-01-31T07:57:58.287Z,98870.06
2023-01-31T08:00:44.577Z,98871.81
2023-01-31T08:03:34.000Z,98863.22
2023-01-31T08:06:09.555Z,98882.94
2023-01-31T08:08:37.906Z,98887.00
2023-01-31T08:11:06.048Z,98887.53
2023-01-31T08:13:37.785Z,98897.41
2023-01-31T08:16:07.302Z,98885.38
2023-01-31T08:18:36.134Z,98887.44
2023-01-31T08:21:03.939Z,98899.59
2023-01-31T08:23:32.085Z,98901.13
2023-01-31T08:26:12.055Z,98898.03
2023-01-31T08:28:40.378Z,98907.81
2023-01-31T08:31:11.791Z,98917.06
2023-01-31T08:33:39.318Z,98916.00
2023-01-31T08:36:18.871Z,98934.59
2023-01-31T08:38:50.747Z,98952.31
2023-01-31T08:41:20.315Z,98953.94
2023-01-31T08:43:57.858Z,98959.63
2023-01-31T08:46:29.587Z,98970.31
2023-01-31T08:48:57.140Z,98974.94
2023-01-31T08:51:25.084Z,98977.59
2023-01-31T08:53:53.253Z,98980.81
2023-01-31T08:56:25.369Z,98984.84
2023-01-31T08:58:54.432Z,98996.94
2023-01-31T09:01:23.040Z,99002.38
2023-01-31T09:03:56.236Z,98998.16
2023-01-31T09:06:27.251Z,99003.13
2023-01-31T09:08:58.588Z,99018.91
2023-01-31T09:11:30.436Z,99014.69
2023-01-31T09:13:58.770Z,99021.03
2023-01-31T09:16:26.361Z,99024.19
2023-01-31T09:18:54.393Z,99002.16
2023-01-31T09:21:22.525Z,99026.75
2023-01-31T09:23:58.803Z,99021.41
2023-01-31T09:26:30.911Z,99011.75
2023-01-31T09:28:58.993Z,99022.44
2023-01-31T09:31:26.804Z,99014.75
2023-01-31T09:33:55.015Z,99029.09
2023-01-31T09:36:24.922Z,99030.03
2023-01-31T09:38:56.965Z,99032.50
2023-01-31T09:41:37.306Z,99032.28
2023-01-31T09:44:13.793Z,99046.34
2023-01-31T09:46:46.738Z,99044.22
2023-01-31T09:49:23.833Z,99045.41
2023-01-31T09:52:02.532Z,99044.63
2023-01-31T09:54:36.534Z,99040.75
2023-01-31T09:57:19.393Z,99033.78
2023-01-31T09:59:53.059Z,99024.88
2023-01-31T10:03:18.521Z,99033.97
2023-01-31T10:05:52.794Z,99039.38
2023-01-31T10:08:29.565Z,99027.13
2023-01-31T10:11:01.557Z,99024.78
2023-01-31T10:13:37.063Z,99017.25
2023-01-31T10:16:18.153Z,99028.97
2023-01-31T10:18:51.687Z,99031.28
2023-01-31T10:21:22.633Z,99020.84
2023-01-31T10:23:56.881Z,99026.03
2023-01-31T10:26:29.427Z,99003.09
2023-01-31T10:29:29.794Z,99013.94
2023-01-31T10:32:04.903Z,99005.34
2023-01-31T10:34:47.961Z,99004.25
2023-01-31T10:37:27.693Z,99004.16
2023-01-31T10:40:02.528Z,99014.81
2023-01-31T10:42:39.306Z,99005.38
2023-01-31T10:45:17.864Z,99005.66
2023-01-31T10:47:49.261Z,99016.06
2023-01-31T10:50:20.441Z,99024.94
2023-01-31T10:53:31.347Z,99023.75
2023-01-31T10:56:32.095Z,99017.47
2023-01-31T10:59:04.797Z,99017.28
2023-01-31T11:01:34.208Z,99006.16
2023-01-31T11:04:02.281Z,99007.91
2023-01-31T11:06:29.774Z,99000.31
2023-01-31T11:09:00.293Z,99009.09
2023-01-31T11:11:29.466Z,99001.63
2023-01-31T11:14:17.046Z,99004.78
2023-01-31T11:16:45.482Z,98986.59
2023-01-31T11:19:23.108Z,99002.03
2023-01-31T11:21:52.744Z,99005.78
2023-01-31T11:24:24.219Z,99016.31
2023-01-31T11:27:00.209Z,99000.53
2023-01-31T11:29:32.513Z,98984.50
2023-01-31T11:32:04.138Z,98992.44
2023-01-31T11:34:33.832Z,98996.75
2023-01-31T11:37:05.767Z,98979.19
2023-01-31T11:39:39.802Z,98992.13
2023-01-31T11:42:13.321Z,98999.81
2023-01-31T11:45:16.166Z,98982.56
2023-01-31T11:47:47.700Z,98978.94
2023-01-31T11:50:34.052Z,98978.63
2023-01-31T11:53:04.480Z,98980.22
2023-01-31T11:55:39.545Z,98989.44
2023-01-31T11:58:40.760Z,98993.25
2023-01-31T12:01:16.390Z,98979.44
2023-01-31T12:04:02.503Z,98983.28
2023-01-31T12:06:36.735Z,98982.94
2023-01-31T12:09:19.164Z,98979.00
2023-01-31T12:11:54.586Z,98967.84
2023-01-31T12:14:25.109Z,98974.13
2023-01-31T12:16:56.003Z,98971.81
2023-01-31T12:19:37.577Z,98972.72
2023-01-31T12:22:28.092Z,98984.03
2023-01-31T12:24:55.580Z,98978.28
2023-01-31T12:27:28.901Z,98982.16
2023-01-31T12:30:09.417Z,98980.63
2023-01-31T12:32:48.979Z,98981.84
2023-01-31T12:35:41.545Z,98980.28
2023-01-31T12:38:21.018Z,98987.81
2023-01-31T12:41:06.674Z,98981.84
2023-01-31T12:43:55.681Z,98981.72
2023-01-31T12:46:35.651Z,98970.59
2023-01-31T12:49:11.451Z,98990.03
2023-01-31T12:51:42.185Z,98986.84
2023-01-31T12:54:27.612Z,98999.50
2023-01-31T12:57:25.307Z,99004.97
2023-01-31T13:00:11.309Z,99004.84
2023-01-31T13:02:57.605Z,99010.44
2023-01-31T13:05:39.546Z,99011.13
2023-01-31T13:08:23.404Z,99013.75
2023-01-31T13:10:53.562Z,99007.38
2023-01-31T13:13:26.837Z,99004.53
2023-01-31T13:16:01.769Z,99005.00
2023-01-31T13:18:34.812Z,99000.16
2023-01-31T13:21:06.245Z,99014.25
2023-01-31T13:23:38.772Z,99021.84
2023-01-31T13:26:22.254Z,99022.06
2023-01-31T13:29:07.299Z,99031.22
2023-01-31T13:31:46.380Z,99029.09
2023-01-31T13:34:13.950Z,99022.84
2023-01-31T13:37:02.632Z,99026.97
2023-01-31T13:40:14.465Z,99023.78
2023-01-31T13:42:42.156Z,99028.31
2023-01-31T13:45:22.743Z,99023.41
2023-01-31T13:47:57.317Z,99034.25
2023-01-31T13:50:34.361Z,99036.69
2023-01-31T13:53:07.121Z,99036.44
2023-01-31T13:55:42.003Z,99045.84
2023-01-31T13:58:25.888Z,99057.53
2023-01-31T14:01:04.677Z,99067.03
2023-01-31T14:04:10.851Z,99058.66
2023-01-31T14:06:56.593Z,99062.00
2023-01-31T14:09:32.359Z,99060.38
2023-01-31T14:12:02.094Z,99055.00
2023-01-31T14:14:41.919Z,99058.09
2023-01-31T14:17:12.987Z,99060.50
2023-01-31T14:19:43.486Z,99058.16
2023-01-31T14:22:19.884Z,99063.91
2023-01-31T14:24:47.381Z,99064.31
2023-01-31T14:27:31.653Z,99060.84
2023-01-31T14:30:08.958Z,99066.81
2023-01-31T14:32:42.593Z,99050.06
2023-01-31T14:35:13.019Z,99050.06
2023-01-31T14:38:23.412Z,99057.91
2023-01-31T14:41:06.076Z,99057.66
2023-01-31T14:43:52.658Z,99070.38
2023-01-31T14:46:51.423Z,99085.09
2023-01-31T14:49:29.033Z,99081.75
2023-01-31T14:52:18.530Z,99077.22
2023-01-31T14:55:07.619Z,99076.78
2023-01-31T14:57:46.938Z,99069.59
2023-01-31T15:00:14.492Z,99078.16
2023-01-31T15:03:24.328Z,99088.34
2023-01-31T15:06:15.929Z,99082.47
2023-01-31T15:08:51.229Z,99077.59
2023-01-31T15:11:42.600Z,99075.19
2023-01-31T15:14:38.883Z,99075.75
2023-01-31T15:17:33.005Z,99082.09
2023-01-31T15:20:17.203Z,99080.38
2023-01-31T15:22:46.816Z,99078.56
2023-01-31T15:25:40.187Z,99080.38
2023-01-31T15:28:15.403Z,99077.97
2023-01-31T15:30:44.621Z,99085.47
2023-01-31T15:33:30.158Z,99074.75
2023-01-31T15:36:06.323Z,99075.19
2023-01-31T15:38:39.769Z,99075.56
2023-01-31T15:41:16.171Z,99064.91
2023-01-31T15:43:45.421Z,99071.94
2023-01-31T15:46:35.835Z,99071.69
2023-01-31T15:49:38.413Z,99068.78
2023-01-31T15:52:22.991Z,99070.13
2023-01-31T15:54:58.928Z,99066.88
2023-01-31T15:57:32.664Z,99074.41
2023-01-31T16:00:00.281Z,99070.34
2023-01-31T16:02:30.955Z,99071.88
2023-01-31T16:04:59.049Z,99075.38
2023-01-31T16:07:29.354Z,99080.25
2023-01-31T16:09:59.420Z,99073.69
2023-01-31T16:12:29.360Z,99074.44
2023-01-31T16:15:01.657Z,99073.66
2023-01-31T16:17:29.809Z,99067.97
2023-01-31T16:19:58.299Z,99066.28
2023-01-31T16:22:31.178Z,99072.31
2023-01-31T16:25:01.464Z,99063.66
2023-01-31T16:27:37.109Z,99071.19
2023-01-31T16:30:05.535Z,99066.63
2023-01-31T16:32:37.156Z,99075.56
2023-01-31T16:35:17.855Z,99078.84
2023-01-31T16:37:46.025Z,99073.09
2023-01-31T16:40:22.723Z,99075.28
2023-01-31T16:42:50.757Z,99084.97
2023-01-31T16:45:34.583Z,99089.22
2023-01-31T16:48:23.168Z,99087.59
2023-01-31T16:50:52.992Z,99091.34
2023-01-31T16:53:25.629Z,99085.19
2023-01-31T16:56:14.948Z,99079.63
2023-01-31T16:58:44.460Z,99076.06
2023-01-31T17:01:14.254Z,99080.69
2023-01-31T17:03:42.315Z,99076.34
2023-01-31T17:06:18.143Z,99071.47
2023-01-31T17:08:46.083Z,99071.63
2023-01-31T17:11:19.655Z,99074.13
2023-01-31T17:13:52.647Z,99075.25
2023-01-31T17:16:27.140Z,99073.94
2023-01-31T17:18:55.200Z,99083.63
2023-01-31T17:21:25.016Z,99080.66
2023-01-31T17:23:52.869Z,99075.00
2023-01-31T17:26:30.540Z,99073.09
2023-01-31T17:29:02.128Z,99076.81
2023-01-31T17:31:31.809Z,99074.88
2023-01-31T17:33:59.639Z,99077.66
2023-01-31T17:36:27.352Z,99075.00
2023-01-31T17:38:55.539Z,99074.16
2023-01-31T17:41:24.767Z,99079.84
2023-01-31T17:43:52.781Z,99073.31
2023-01-31T17:46:20.821Z,99074.97
2023-01-31T17:48:48.392Z,99072.84
2023-01-31T17:51:16.132Z,99073.50
2023-01-31T17:53:49.699Z,99067.34
2023-01-31T17:56:18.694Z,99071.25
2023-01-31T17:58:46.702Z,99062.19
2023-01-31T18:01:14.651Z,99053.88
2023-01-31T18:03:42.931Z,99059.91
2023-01-31T18:06:11.227Z,99067.28
2023-01-31T18:08:39.302Z,99056.91
2023-01-31T18:11:16.815Z,99050.72
2023-01-31T18:13:45.271Z,99050.44
2023-01-31T18:16:15.936Z,99045.84
2023-01-31T18:18:44.163Z,99043.41
2023-01-31T18:21:17.433Z,99041.72
2023-01-31T18:23:53.383Z,99046.03
2023-01-31T18:26:22.801Z,99050.81
2023-01-31T18:28:51.222Z,99048.63
2023-01-31T18:31:19.175Z,99049.28
2023-01-31T18:33:47.718Z,99044.91
2023-01-31T18:36:18.239Z,99050.47
2023-01-31T18:38:48.272Z,99050.34
2023-01-31T18:41:18.979Z,99051.53
2023-01-31T18:43:48.316Z,99056.84
2023-01-31T18:46:17.377Z,99053.28
2023-01-31T18:48:45.439Z,99055.50
2023-01-31T18:51:14.818Z,99050.59
2023-01-31T18:53:47.184Z,99059.56
2023-01-31T18:56:20.944Z,99057.78
2023-01-31T18:58:49.849Z,99045.03
2023-01-31T19:01:23.771Z,99056.38
2023-01-31T19:03:53.451Z,99049.34
2023-01-31T19:06:24.400Z,99048.28
2023-01-31T19:08:53.769Z,99049.38
2023-01-31T19:11:25.405Z,99052.66
2023-01-31T19:13:53.332Z,99060.47
2023-01-31T19:16:23.978Z,99053.53
2023-01-31T19:18:52.493Z,99052.25
2023-01-31T19:21:26.031Z,99058.41
2023-01-31T19:23:59.263Z,99046.59
2023-01-31T19:26:28.572Z,99061.00
2023-01-31T19:28:56.682Z,99067.44
2023-01-31T19:31:26.309Z,99063.59
2023-01-31T19:33:56.967Z,99069.16
2023-01-31T19:36:27.389Z,99065.53
2023-01-31T19:38:59.705Z,99055.94
2023-01-31T19:41:28.531Z,99063.59
2023-01-31T19:43:58.395Z,99051.66
2023-01-31T19:46:31.651Z,99047.94
2023-01-31T19:49:00.859Z,99050.81
2023-01-31T19:51:29.385Z,99041.22
2023-01-31T19:54:01.185Z,99055.66
2023-01-31T19:56:30.492Z,99045.25
2023-01-31T19:58:59.794Z,99044.31
2023-01-31T20:01:28.397Z,99046.28
2023-01-31T20:03:56.140Z,99044.91
2023-01-31T20:06:29.144Z,99050.94
2023-01-31T20:09:00.951Z,99045.41
2023-01-31T20:11:29.596Z,99055.38
2023-01-31T20:13:58.076Z,99047.91
2023-01-31T20:16:26.451Z,99040.25
2023-01-31T20:18:57.364Z,99050.16
2023-01-31T20:21:25.173Z,99054.00
2023-01-31T20:23:53.084Z,99047.47
2023-01-31T20:26:22.797Z,99043.25
2023-01-31T20:28:51.787Z,99041.91
2023-01-31T20:31:19.518Z,99038.38
2023-01-31T20:33:47.407Z,99043.72
2023-01-31T20:36:15.342Z,99035.16
2023-01-31T20:38:43.152Z,99040.81
2023-01-31T20:41:11.180Z,99034.88
2023-01-31T20:43:39.015Z,99029.88
2023-01-31T20:46:09.365Z,99023.63
2023-01-31T20:48:38.039Z,99023.59
2023-01-31T20:51:06.668Z,99009.66
2023-01-31T20:53:35.033Z,99017.47
2023-01-31T20:56:05.386Z,99006.69
2023-01-31T20:58:35.845Z,99009.22
2023-01-31T21:01:06.367Z,99017.25
2023-01-31T21:03:35.583Z,99024.78
2023-01-31T21:06:04.667Z,99009.06
2023-01-31T21:08:33.272Z,99015.06
2023-01-31T21:11:07.026Z,99010.19
2023-01-31T21:13:35.571Z,99011.50
2023-01-31T21:16:05.837Z,99010.56
2023-01-31T21:18:37.514Z,99011.25
2023-01-31T21:21:07.543Z,99006.31
2023-01-31T21:23:36.474Z,99004.81
2023-01-31T21:26:06.468Z,99001.63
2023-01-31T21:28:34.332Z,98992.19
2023-01-31T21:31:04.846Z,98988.97
2023-01-31T21:33:32.763Z,98996.59
2023-01-31T21:36:08.980Z,98996.34
2023-01-31T21:38:37.498Z,98994.66
2023-01-31T21:41:23.970Z,98994.16
2023-01-31T21:43:51.787Z,99003.19
2023-01-31T21:46:20.003Z,98994.78
2023-01-31T21:48:47.834Z,98991.47
2023-01-31T21:51:17.211Z,98992.47
2023-01-31T21:53:45.914Z,98992.59
2023-01-31T21:56:22.086Z,99001.31
2023-01-31T21:58:50.092Z,99001.63
2023-01-31T22:01:20.741Z,99000.06
2023-01-31T22:03:51.115Z,98992.72
2023-01-31T22:06:21.802Z,98995.88
2023-01-31T22:08:54.094Z,98994.47
2023-01-31T22:11:22.318Z,98996.03
2023-01-31T22:13:54.768Z,98988.84
2023-01-31T22:16:26.514Z,98993.50
2023-01-31T22:18:54.205Z,98988.59
2023-01-31T22:21:26.857Z,98983.72
2023-01-31T22:23:56.434Z,98986.69
2023-01-31T22:26:29.811Z,98985.00
2023-01-31T22:28:59.900Z,98991.91
2023-01-31T22:31:28.859Z,98988.97
2023-01-31T22:33:56.805Z,98981.06
2023-01-31T22:36:24.829Z,98977.00
2023-01-31T22:38:53.179Z,98964.16
2023-01-31T22:41:21.140Z,98962.81
2023-01-31T22:43:50.640Z,98957.31
2023-01-31T22:46:24.612Z,98954.47
2023-01-31T22:48:52.687Z,98958.75
2023-01-31T22:51:23.136Z,98960.91
2023-01-31T22:53:50.682Z,98951.59
2023-01-31T22:56:21.327Z,98949.09
2023-01-31T22:58:49.305Z,98944.97
2023-01-31T23:01:20.575Z,98934.84
2023-01-31T23:03:48.891Z,98936.69
2023-01-31T23:06:17.919Z,98929.94
2023-01-31T23:08:46.469Z,98923.69
2023-01-31T23:11:16.813Z,98915.91
2023-01-31T23:13:45.699Z,98921.22
2023-01-31T23:16:20.397Z,98914.84
2023-01-31T23:18:47.898Z,98910.72
2023-01-31T23:21:18.277Z,98916.66
2023-01-31T23:23:46.291Z,98917.16
2023-01-31T23:26:14.229Z,98914.91
2023-01-31T23:28:42.160Z,98922.66
2023-01-31T23:31:09.844Z,98915.84
2023-01-31T23:33:37.531Z,98916.81
2023-01-31T23:36:05.517Z,98896.63
2023-01-31T23:38:33.255Z,98912.72
2023-01-31T23:41:00.885Z,98898.94
2023-01-31T23:43:29.066Z,98893.25
2023-01-31T23:45:56.651Z,98881.34
2023-01-31T23:48:24.170Z,98882.19
2023-01-31T23:50:51.683Z,98882.75
2023-01-31T23:53:19.232Z,98878.88
2023-01-31T23:55:46.722Z,98884.28
2023-01-31T23:58:14.287Z,98871.88
